sensor_id;sensor_type;location;lat;lon;timestamp;P1;P2;P0
20371;PMS7003;63562;30.520;-97.766;2022-10-15T00:00:47;8.25;8.25;8.00
20371;PMS7003;63562;30.520;-97.766;2022-10-15T00:03:29;7.00;7.00;6.00
20371;PMS7003;63562;30.520;-97.766;2022-10-15T00:06:21;9.00;9.00;8.00
20371;PMS7003;63562;30.520;-97.766;2022-10-15T00:08:56;10.00;10.00;7.75
20371;PMS7003;63562;30.520;-97.766;2022-10-15T00:11:48;11.75;10.00;9.00
20371;PMS7003;63562;30.520;-97.766;2022-10-15T00:14:52;8.00;8.00;7.00
20371;PMS7003;63562;30.520;-97.766;2022-10-15T00:17:52;10.75;10.75;9.50
20371;PMS7003;63562;30.520;-97.766;2022-10-15T00:20:29;9.50;9.50;8.75
20371;PMS7003;63562;30.520;-97.766;2022-10-15T00:23:12;10.75;10.75;9.75
20371;PMS7003;63562;30.520;-97.766;2022-10-15T00:26:05;9.75;9.75;9.00
20371;PMS7003;63562;30.520;-97.766;2022-10-15T00:28:57;11.00;11.00;9.00
20371;PMS7003;63562;30.520;-97.766;2022-10-15T00:32:19;9.75;9.75;8.50
20371;PMS7003;63562;30.520;-97.766;2022-10-15T00:35:09;11.50;11.50;9.00
20371;PMS7003;63562;30.520;-97.766;2022-10-15T00:37:39;10.75;10.75;9.25
20371;PMS7003;63562;30.520;-97.766;2022-10-15T00:40:21;9.00;9.00;8.00
20371;PMS7003;63562;30.520;-97.766;2022-10-15T00:42:57;10.00;10.00;8.50
20371;PMS7003;63562;30.520;-97.766;2022-10-15T00:45:29;9.25;9.25;8.00
20371;PMS7003;63562;30.520;-97.766;2022-10-15T00:48:14;9.00;9.00;7.00
20371;PMS7003;63562;30.520;-97.766;2022-10-15T00:51:38;8.00;8.00;7.00
20371;PMS7003;63562;30.520;-97.766;2022-10-15T00:54:25;9.00;9.00;8.00
20371;PMS7003;63562;30.520;-97.766;2022-10-15T00:57:24;9.50;9.50;8.50
20371;PMS7003;63562;30.520;-97.766;2022-10-15T01:00:26;8.50;8.50;8.00
20371;PMS7003;63562;30.520;-97.766;2022-10-15T01:03:06;10.75;10.75;8.50
20371;PMS7003;63562;30.520;-97.766;2022-10-15T01:06:58;7.50;7.50;5.50
20371;PMS7003;63562;30.520;-97.766;2022-10-15T01:18:44;9.00;9.00;8.00
20371;PMS7003;63562;30.520;-97.766;2022-10-15T01:21:24;9.50;9.50;8.75
20371;PMS7003;63562;30.520;-97.766;2022-10-15T01:27:20;8.75;8.75;8.00
20371;PMS7003;63562;30.520;-97.766;2022-10-15T01:30:56;8.00;8.00;7.00
20371;PMS7003;63562;30.520;-97.766;2022-10-15T01:33:02;9.00;9.00;7.25
20371;PMS7003;63562;30.520;-97.766;2022-10-15T01:45:35;7.50;7.50;7.00
20371;PMS7003;63562;30.520;-97.766;2022-10-15T01:48:21;9.75;9.75;8.50
20371;PMS7003;63562;30.520;-97.766;2022-10-15T01:50:59;8.50;8.50;7.50
20371;PMS7003;63562;30.520;-97.766;2022-10-15T02:11:11;10.00;10.00;8.50
20371;PMS7003;63562;30.520;-97.766;2022-10-15T02:14:33;11.25;9.50;7.50
20371;PMS7003;63562;30.520;-97.766;2022-10-15T02:17:11;9.00;9.00;7.50
20371;PMS7003;63562;30.520;-97.766;2022-10-15T02:19:52;11.00;10.00;8.00
20371;PMS7003;63562;30.520;-97.766;2022-10-15T02:22:38;11.50;11.50;10.00
20371;PMS7003;63562;30.520;-97.766;2022-10-15T02:25:19;9.50;9.50;8.00
20371;PMS7003;63562;30.520;-97.766;2022-10-15T02:27:53;6.50;6.50;6.25
20371;PMS7003;63562;30.520;-97.766;2022-10-15T02:30:26;8.75;8.75;8.00
20371;PMS7003;63562;30.520;-97.766;2022-10-15T02:32:59;13.00;11.25;9.00
20371;PMS7003;63562;30.520;-97.766;2022-10-15T02:35:30;10.50;10.25;8.50
20371;PMS7003;63562;30.520;-97.766;2022-10-15T02:38:07;9.50;9.25;7.50
20371;PMS7003;63562;30.520;-97.766;2022-10-15T02:40:48;12.25;12.25;9.50
20371;PMS7003;63562;30.520;-97.766;2022-10-15T02:43:20;11.00;11.00;9.00
20371;PMS7003;63562;30.520;-97.766;2022-10-15T02:45:53;8.00;8.00;7.25
20371;PMS7003;63562;30.520;-97.766;2022-10-15T02:48:23;11.75;11.75;10.00
20371;PMS7003;63562;30.520;-97.766;2022-10-15T02:50:54;10.00;10.00;8.00
20371;PMS7003;63562;30.520;-97.766;2022-10-15T02:53:26;9.00;9.00;7.00
20371;PMS7003;63562;30.520;-97.766;2022-10-15T02:55:56;10.00;10.00;8.75
20371;PMS7003;63562;30.520;-97.766;2022-10-15T02:58:26;9.00;9.00;7.00
20371;PMS7003;63562;30.520;-97.766;2022-10-15T03:00:59;9.00;9.00;7.75
20371;PMS7003;63562;30.520;-97.766;2022-10-15T03:03:30;8.00;8.00;6.75
20371;PMS7003;63562;30.520;-97.766;2022-10-15T03:06:00;9.25;9.25;8.25
20371;PMS7003;63562;30.520;-97.766;2022-10-15T03:08:32;8.75;8.75;8.00
20371;PMS7003;63562;30.520;-97.766;2022-10-15T03:11:04;9.25;9.25;8.25
20371;PMS7003;63562;30.520;-97.766;2022-10-15T03:13:37;9.25;9.25;8.00
20371;PMS7003;63562;30.520;-97.766;2022-10-15T03:16:09;9.25;8.75;7.50
20371;PMS7003;63562;30.520;-97.766;2022-10-15T03:18:44;11.00;11.00;9.00
20371;PMS7003;63562;30.520;-97.766;2022-10-15T03:21:15;5.25;5.25;4.00
20371;PMS7003;63562;30.520;-97.766;2022-10-15T03:23:47;9.00;9.00;8.00
20371;PMS7003;63562;30.520;-97.766;2022-10-15T03:26:21;9.00;9.00;7.25
20371;PMS7003;63562;30.520;-97.766;2022-10-15T03:28:51;9.00;9.00;8.00
20371;PMS7003;63562;30.520;-97.766;2022-10-15T03:31:34;8.00;8.00;7.75
20371;PMS7003;63562;30.520;-97.766;2022-10-15T03:34:05;8.25;8.25;6.50
20371;PMS7003;63562;30.520;-97.766;2022-10-15T03:36:35;6.25;6.25;5.00
20371;PMS7003;63562;30.520;-97.766;2022-10-15T03:39:11;7.25;7.25;6.25
20371;PMS7003;63562;30.520;-97.766;2022-10-15T03:41:44;11.75;10.75;9.00
20371;PMS7003;63562;30.520;-97.766;2022-10-15T03:44:21;7.75;7.75;6.75
20371;PMS7003;63562;30.520;-97.766;2022-10-15T03:47:02;8.50;8.50;7.00
20371;PMS7003;63562;30.520;-97.766;2022-10-15T03:49:42;7.75;7.75;7.00
20371;PMS7003;63562;30.520;-97.766;2022-10-15T03:52:21;8.50;8.50;8.00
20371;PMS7003;63562;30.520;-97.766;2022-10-15T03:54:54;9.00;9.00;8.00
20371;PMS7003;63562;30.520;-97.766;2022-10-15T03:57:24;6.00;6.00;5.50
20371;PMS7003;63562;30.520;-97.766;2022-10-15T04:00:00;7.25;7.25;6.25
20371;PMS7003;63562;30.520;-97.766;2022-10-15T04:02:38;7.00;7.00;6.00
20371;PMS7003;63562;30.520;-97.766;2022-10-15T04:05:18;8.25;8.25;7.25
20371;PMS7003;63562;30.520;-97.766;2022-10-15T04:07:53;9.00;9.00;7.50
20371;PMS7003;63562;30.520;-97.766;2022-10-15T04:10:25;10.00;9.00;8.00
20371;PMS7003;63562;30.520;-97.766;2022-10-15T04:13:00;8.75;8.75;8.00
20371;PMS7003;63562;30.520;-97.766;2022-10-15T04:15:33;7.00;7.00;6.00
20371;PMS7003;63562;30.520;-97.766;2022-10-15T04:18:08;7.75;7.75;6.00
20371;PMS7003;63562;30.520;-97.766;2022-10-15T04:20:38;8.25;8.25;6.75
20371;PMS7003;63562;30.520;-97.766;2022-10-15T04:23:15;10.25;9.25;7.75
20371;PMS7003;63562;30.520;-97.766;2022-10-15T04:26:05;8.50;8.50;7.00
20371;PMS7003;63562;30.520;-97.766;2022-10-15T04:28:36;8.50;8.50;7.00
20371;PMS7003;63562;30.520;-97.766;2022-10-15T04:31:09;8.00;8.00;6.50
20371;PMS7003;63562;30.520;-97.766;2022-10-15T04:33:40;6.00;6.00;6.00
20371;PMS7003;63562;30.520;-97.766;2022-10-15T04:36:13;7.75;7.75;6.25
20371;PMS7003;63562;30.520;-97.766;2022-10-15T04:38:51;8.00;8.00;7.00
20371;PMS7003;63562;30.520;-97.766;2022-10-15T04:41:39;8.00;8.00;7.00
20371;PMS7003;63562;30.520;-97.766;2022-10-15T04:44:20;8.75;8.75;7.00
20371;PMS7003;63562;30.520;-97.766;2022-10-15T04:46:54;9.25;9.25;8.00
20371;PMS7003;63562;30.520;-97.766;2022-10-15T04:49:45;9.00;8.00;7.00
20371;PMS7003;63562;30.520;-97.766;2022-10-15T04:52:34;8.00;8.00;7.00
20371;PMS7003;63562;30.520;-97.766;2022-10-15T04:55:09;7.25;7.25;7.25
20371;PMS7003;63562;30.520;-97.766;2022-10-15T04:57:39;8.50;8.50;7.50
20371;PMS7003;63562;30.520;-97.766;2022-10-15T05:00:12;9.00;9.00;8.00
20371;PMS7003;63562;30.520;-97.766;2022-10-15T05:03:03;8.75;8.75;8.00
20371;PMS7003;63562;30.520;-97.766;2022-10-15T05:05:45;9.25;9.25;7.50
20371;PMS7003;63562;30.520;-97.766;2022-10-15T05:08:15;9.50;9.25;8.00
20371;PMS7003;63562;30.520;-97.766;2022-10-15T05:11:05;10.75;10.00;9.25
20371;PMS7003;63562;30.520;-97.766;2022-10-15T05:13:37;9.00;9.00;8.00
20371;PMS7003;63562;30.520;-97.766;2022-10-15T05:18:43;7.75;7.75;7.25
20371;PMS7003;63562;30.520;-97.766;2022-10-15T05:21:16;9.00;9.00;8.00
20371;PMS7003;63562;30.520;-97.766;2022-10-15T05:23:52;8.00;8.00;6.00
20371;PMS7003;63562;30.520;-97.766;2022-10-15T05:26:42;8.50;8.50;7.25
20371;PMS7003;63562;30.520;-97.766;2022-10-15T05:29:16;8.00;8.00;6.50
20371;PMS7003;63562;30.520;-97.766;2022-10-15T05:31:48;6.00;6.00;5.25
20371;PMS7003;63562;30.520;-97.766;2022-10-15T05:34:25;9.25;9.25;8.00
20371;PMS7003;63562;30.520;-97.766;2022-10-15T05:37:01;7.25;7.25;7.00
20371;PMS7003;63562;30.520;-97.766;2022-10-15T05:39:33;4.50;4.50;4.00
20371;PMS7003;63562;30.520;-97.766;2022-10-15T05:42:03;8.00;8.00;7.00
20371;PMS7003;63562;30.520;-97.766;2022-10-15T05:44:41;3.25;3.25;3.25
20371;PMS7003;63562;30.520;-97.766;2022-10-15T05:47:11;10.00;10.00;9.00
20371;PMS7003;63562;30.520;-97.766;2022-10-15T05:49:40;10.00;10.00;9.00
20371;PMS7003;63562;30.520;-97.766;2022-10-15T05:52:26;7.75;7.75;7.00
20371;PMS7003;63562;30.520;-97.766;2022-10-15T05:55:12;6.00;6.00;5.00
20371;PMS7003;63562;30.520;-97.766;2022-10-15T05:57:41;7.25;7.25;6.75
20371;PMS7003;63562;30.520;-97.766;2022-10-15T06:00:10;7.75;7.75;6.75
20371;PMS7003;63562;30.520;-97.766;2022-10-15T06:02:40;9.50;9.50;8.00
20371;PMS7003;63562;30.520;-97.766;2022-10-15T06:05:12;8.50;8.50;6.75
20371;PMS7003;63562;30.520;-97.766;2022-10-15T06:07:43;7.25;7.25;7.00
20371;PMS7003;63562;30.520;-97.766;2022-10-15T06:10:13;8.00;8.00;7.00
20371;PMS7003;63562;30.520;-97.766;2022-10-15T06:12:48;8.25;8.25;7.00
20371;PMS7003;63562;30.520;-97.766;2022-10-15T06:15:19;7.00;7.00;6.75
20371;PMS7003;63562;30.520;-97.766;2022-10-15T06:17:53;7.75;7.75;7.25
20371;PMS7003;63562;30.520;-97.766;2022-10-15T06:20:23;9.00;9.00;7.50
20371;PMS7003;63562;30.520;-97.766;2022-10-15T06:22:57;6.00;6.00;6.00
20371;PMS7003;63562;30.520;-97.766;2022-10-15T06:25:34;8.50;8.25;8.00
20371;PMS7003;63562;30.520;-97.766;2022-10-15T06:28:04;7.00;7.00;5.00
20371;PMS7003;63562;30.520;-97.766;2022-10-15T06:30:43;8.25;8.25;6.50
20371;PMS7003;63562;30.520;-97.766;2022-10-15T06:33:13;7.75;7.75;6.50
20371;PMS7003;63562;30.520;-97.766;2022-10-15T06:35:45;5.25;5.25;4.25
20371;PMS7003;63562;30.520;-97.766;2022-10-15T06:38:18;7.50;7.50;7.25
20371;PMS7003;63562;30.520;-97.766;2022-10-15T06:40:50;7.25;7.25;6.25
20371;PMS7003;63562;30.520;-97.766;2022-10-15T06:43:19;7.75;7.75;7.00
20371;PMS7003;63562;30.520;-97.766;2022-10-15T06:45:49;8.50;7.25;7.25
20371;PMS7003;63562;30.520;-97.766;2022-10-15T06:48:21;8.00;8.00;6.75
20371;PMS7003;63562;30.520;-97.766;2022-10-15T06:50:52;8.25;8.25;8.00
20371;PMS7003;63562;30.520;-97.766;2022-10-15T06:53:22;9.00;9.00;7.25
20371;PMS7003;63562;30.520;-97.766;2022-10-15T06:55:59;9.00;9.00;7.25
20371;PMS7003;63562;30.520;-97.766;2022-10-15T06:58:37;8.00;8.00;6.50
20371;PMS7003;63562;30.520;-97.766;2022-10-15T07:01:13;12.00;12.00;10.00
20371;PMS7003;63562;30.520;-97.766;2022-10-15T07:03:49;9.75;9.75;7.25
20371;PMS7003;63562;30.520;-97.766;2022-10-15T07:06:19;7.75;7.00;6.00
20371;PMS7003;63562;30.520;-97.766;2022-10-15T07:08:49;9.50;8.25;7.25
20371;PMS7003;63562;30.520;-97.766;2022-10-15T07:11:21;10.00;10.00;7.75
20371;PMS7003;63562;30.520;-97.766;2022-10-15T07:13:52;10.50;9.75;7.75
20371;PMS7003;63562;30.520;-97.766;2022-10-15T07:16:26;9.25;9.25;7.50
20371;PMS7003;63562;30.520;-97.766;2022-10-15T07:18:57;10.75;10.75;9.00
20371;PMS7003;63562;30.520;-97.766;2022-10-15T07:21:27;12.50;12.00;10.25
20371;PMS7003;63562;30.520;-97.766;2022-10-15T07:23:58;10.00;10.00;8.25
20371;PMS7003;63562;30.520;-97.766;2022-10-15T07:26:32;9.75;9.25;7.00
20371;PMS7003;63562;30.520;-97.766;2022-10-15T07:29:02;11.75;11.00;9.00
20371;PMS7003;63562;30.520;-97.766;2022-10-15T07:31:32;12.50;11.25;9.50
20371;PMS7003;63562;30.520;-97.766;2022-10-15T07:34:02;12.25;12.25;10.00
20371;PMS7003;63562;30.520;-97.766;2022-10-15T07:36:33;8.50;8.50;7.25
20371;PMS7003;63562;30.520;-97.766;2022-10-15T07:39:05;10.25;9.75;8.75
20371;PMS7003;63562;30.520;-97.766;2022-10-15T07:41:38;10.25;10.25;9.00
20371;PMS7003;63562;30.520;-97.766;2022-10-15T07:44:07;8.50;8.50;7.75
20371;PMS7003;63562;30.520;-97.766;2022-10-15T07:46:36;10.00;10.00;8.00
20371;PMS7003;63562;30.520;-97.766;2022-10-15T07:49:09;10.25;10.25;8.75
20371;PMS7003;63562;30.520;-97.766;2022-10-15T07:51:41;12.25;12.25;9.25
20371;PMS7003;63562;30.520;-97.766;2022-10-15T07:54:14;10.00;10.00;7.75
20371;PMS7003;63562;30.520;-97.766;2022-10-15T07:56:44;11.75;11.75;10.00
20371;PMS7003;63562;30.520;-97.766;2022-10-15T07:59:14;10.00;10.00;9.00
20371;PMS7003;63562;30.520;-97.766;2022-10-15T08:01:47;8.50;8.50;7.00
20371;PMS7003;63562;30.520;-97.766;2022-10-15T08:04:19;7.00;7.00;6.00
20371;PMS7003;63562;30.520;-97.766;2022-10-15T08:06:51;11.25;9.75;8.50
20371;PMS7003;63562;30.520;-97.766;2022-10-15T08:09:21;10.50;10.50;8.25
20371;PMS7003;63562;30.520;-97.766;2022-10-15T08:11:52;11.00;11.00;8.25
20371;PMS7003;63562;30.520;-97.766;2022-10-15T08:14:22;9.25;9.25;7.50
20371;PMS7003;63562;30.520;-97.766;2022-10-15T08:16:54;10.00;10.00;8.25
20371;PMS7003;63562;30.520;-97.766;2022-10-15T08:19:25;8.00;8.00;7.25
20371;PMS7003;63562;30.520;-97.766;2022-10-15T08:21:55;9.75;9.50;7.75
20371;PMS7003;63562;30.520;-97.766;2022-10-15T08:24:26;10.00;10.00;8.75
20371;PMS7003;63562;30.520;-97.766;2022-10-15T08:26:57;10.00;10.00;8.75
20371;PMS7003;63562;30.520;-97.766;2022-10-15T08:29:28;11.00;10.25;9.00
20371;PMS7003;63562;30.520;-97.766;2022-10-15T08:32:02;10.00;9.50;8.00
20371;PMS7003;63562;30.520;-97.766;2022-10-15T08:34:31;7.75;7.75;7.00
20371;PMS7003;63562;30.520;-97.766;2022-10-15T08:37:01;8.75;8.25;7.75
20371;PMS7003;63562;30.520;-97.766;2022-10-15T08:39:34;9.00;9.00;8.50
20371;PMS7003;63562;30.520;-97.766;2022-10-15T08:42:05;10.50;10.00;8.00
20371;PMS7003;63562;30.520;-97.766;2022-10-15T08:44:49;10.00;10.00;8.25
20371;PMS7003;63562;30.520;-97.766;2022-10-15T08:52:58;8.00;8.00;6.75
20371;PMS7003;63562;30.520;-97.766;2022-10-15T08:55:33;8.00;8.00;6.50
20371;PMS7003;63562;30.520;-97.766;2022-10-15T08:58:15;8.25;8.25;7.75
20371;PMS7003;63562;30.520;-97.766;2022-10-15T09:01:40;7.25;7.25;6.00
20371;PMS7003;63562;30.520;-97.766;2022-10-15T09:03:57;8.25;8.25;7.25
20371;PMS7003;63562;30.520;-97.766;2022-10-15T09:06:35;8.00;8.00;7.00
20371;PMS7003;63562;30.520;-97.766;2022-10-15T09:12:02;10.00;10.00;8.00
20371;PMS7003;63562;30.520;-97.766;2022-10-15T09:14:42;3.00;3.00;3.00
20371;PMS7003;63562;30.520;-97.766;2022-10-15T09:19:54;9.00;9.00;8.00
20371;PMS7003;63562;30.520;-97.766;2022-10-15T09:22:26;8.25;8.25;7.00
20371;PMS7003;63562;30.520;-97.766;2022-10-15T09:25:00;9.00;9.00;7.25
20371;PMS7003;63562;30.520;-97.766;2022-10-15T09:27:46;9.75;9.75;8.75
20371;PMS7003;63562;30.520;-97.766;2022-10-15T09:33:46;10.00;10.00;9.00
20371;PMS7003;63562;30.520;-97.766;2022-10-15T09:45:19;11.00;11.00;10.00
20371;PMS7003;63562;30.520;-97.766;2022-10-15T09:47:55;9.25;9.25;7.25
20371;PMS7003;63562;30.520;-97.766;2022-10-15T09:50:42;7.25;7.25;7.00
20371;PMS7003;63562;30.520;-97.766;2022-10-15T09:56:53;7.25;7.25;6.25
20371;PMS7003;63562;30.520;-97.766;2022-10-15T09:59:27;6.50;6.50;5.75
20371;PMS7003;63562;30.520;-97.766;2022-10-15T10:02:16;7.75;7.75;6.50
20371;PMS7003;63562;30.520;-97.766;2022-10-15T10:04:54;6.75;6.75;6.25
20371;PMS7003;63562;30.520;-97.766;2022-10-15T10:07:35;5.00;5.00;4.00
20371;PMS7003;63562;30.520;-97.766;2022-10-15T10:10:24;7.00;7.00;6.00
20371;PMS7003;63562;30.520;-97.766;2022-10-15T10:12:58;5.00;5.00;4.00
20371;PMS7003;63562;30.520;-97.766;2022-10-15T10:15:32;9.00;9.00;7.50
20371;PMS7003;63562;30.520;-97.766;2022-10-15T10:18:21;7.25;7.25;6.25
20371;PMS7003;63562;30.520;-97.766;2022-10-15T10:20:54;8.75;8.75;7.00
20371;PMS7003;63562;30.520;-97.766;2022-10-15T10:23:29;9.00;9.00;7.00
20371;PMS7003;63562;30.520;-97.766;2022-10-15T10:25:59;8.00;8.00;7.00
20371;PMS7003;63562;30.520;-97.766;2022-10-15T10:29:12;8.00;8.00;7.00
20371;PMS7003;63562;30.520;-97.766;2022-10-15T10:31:48;10.00;8.75;8.00
20371;PMS7003;63562;30.520;-97.766;2022-10-15T10:34:29;8.75;8.75;7.00
20371;PMS7003;63562;30.520;-97.766;2022-10-15T10:37:02;8.75;8.75;8.00
20371;PMS7003;63562;30.520;-97.766;2022-10-15T10:39:36;8.75;8.75;8.00
20371;PMS7003;63562;30.520;-97.766;2022-10-15T10:44:49;9.25;9.25;8.00
20371;PMS7003;63562;30.520;-97.766;2022-10-15T10:47:21;8.25;8.25;7.25
20371;PMS7003;63562;30.520;-97.766;2022-10-15T10:49:56;9.67;9.67;8.67
20371;PMS7003;63562;30.520;-97.766;2022-10-15T10:52:28;9.50;9.50;7.75
20371;PMS7003;63562;30.520;-97.766;2022-10-15T10:57:52;7.00;7.00;5.25
20371;PMS7003;63562;30.520;-97.766;2022-10-15T11:03:19;8.50;8.50;7.75
20371;PMS7003;63562;30.520;-97.766;2022-10-15T11:06:19;9.50;9.50;8.50
20371;PMS7003;63562;30.520;-97.766;2022-10-15T11:20:27;6.00;6.00;5.25
20371;PMS7003;63562;30.520;-97.766;2022-10-15T11:32:50;11.50;11.50;8.50
20371;PMS7003;63562;30.520;-97.766;2022-10-15T11:38:34;8.00;8.00;7.00
20371;PMS7003;63562;30.520;-97.766;2022-10-15T11:41:34;9.00;9.00;7.75
20371;PMS7003;63562;30.520;-97.766;2022-10-15T11:44:36;7.75;7.75;6.00
20371;PMS7003;63562;30.520;-97.766;2022-10-15T11:58:40;9.25;9.25;8.00
20371;PMS7003;63562;30.520;-97.766;2022-10-15T12:01:19;8.25;8.25;7.00
20371;PMS7003;63562;30.520;-97.766;2022-10-15T12:07:23;8.00;8.00;6.50
20371;PMS7003;63562;30.520;-97.766;2022-10-15T12:10:05;8.00;8.00;7.00
20371;PMS7003;63562;30.520;-97.766;2022-10-15T12:16:11;8.25;8.25;7.25
20371;PMS7003;63562;30.520;-97.766;2022-10-15T12:27:15;7.25;7.25;6.00
20371;PMS7003;63562;30.520;-97.766;2022-10-15T12:32:43;5.00;5.00;4.00
20371;PMS7003;63562;30.520;-97.766;2022-10-15T12:38:07;8.50;8.50;7.00
20371;PMS7003;63562;30.520;-97.766;2022-10-15T12:40:54;7.00;7.00;6.50
20371;PMS7003;63562;30.520;-97.766;2022-10-15T12:43:32;7.00;7.00;5.25
20371;PMS7003;63562;30.520;-97.766;2022-10-15T12:57:01;8.00;8.00;7.00
20371;PMS7003;63562;30.520;-97.766;2022-10-15T12:59:55;7.25;7.25;6.00
20371;PMS7003;63562;30.520;-97.766;2022-10-15T13:02:39;8.00;8.00;7.25
20371;PMS7003;63562;30.520;-97.766;2022-10-15T13:08:01;6.50;6.50;5.75
20371;PMS7003;63562;30.520;-97.766;2022-10-15T13:10:40;6.25;6.25;5.75
20371;PMS7003;63562;30.520;-97.766;2022-10-15T13:13:26;7.50;7.50;6.00
20371;PMS7003;63562;30.520;-97.766;2022-10-15T13:16:01;7.75;7.75;7.00
20371;PMS7003;63562;30.520;-97.766;2022-10-15T13:18:37;9.00;9.00;7.50
20371;PMS7003;63562;30.520;-97.766;2022-10-15T13:21:09;10.75;9.00;7.75
20371;PMS7003;63562;30.520;-97.766;2022-10-15T13:23:48;5.50;5.50;4.00
20371;PMS7003;63562;30.520;-97.766;2022-10-15T13:26:25;9.50;9.50;8.00
20371;PMS7003;63562;30.520;-97.766;2022-10-15T13:28:56;9.00;9.00;8.00
20371;PMS7003;63562;30.520;-97.766;2022-10-15T13:31:28;10.00;8.00;6.25
20371;PMS7003;63562;30.520;-97.766;2022-10-15T13:34:09;7.50;7.50;6.25
20371;PMS7003;63562;30.520;-97.766;2022-10-15T13:36:43;8.50;8.50;7.00
20371;PMS7003;63562;30.520;-97.766;2022-10-15T13:44:36;8.00;8.00;7.00
20371;PMS7003;63562;30.520;-97.766;2022-10-15T13:55:31;8.00;8.00;8.00
20371;PMS7003;63562;30.520;-97.766;2022-10-15T13:58:23;10.75;10.75;9.00
20371;PMS7003;63562;30.520;-97.766;2022-10-15T14:01:08;8.75;8.75;8.25
20371;PMS7003;63562;30.520;-97.766;2022-10-15T14:03:46;11.00;11.00;8.50
20371;PMS7003;63562;30.520;-97.766;2022-10-15T14:06:25;9.75;9.75;8.25
20371;PMS7003;63562;30.520;-97.766;2022-10-15T14:11:47;8.00;8.00;7.50
20371;PMS7003;63562;30.520;-97.766;2022-10-15T14:14:38;9.50;9.25;7.25
20371;PMS7003;63562;30.520;-97.766;2022-10-15T14:19:58;9.50;9.50;8.25
20371;PMS7003;63562;30.520;-97.766;2022-10-15T14:22:52;8.50;8.50;7.25
20371;PMS7003;63562;30.520;-97.766;2022-10-15T14:25:23;11.75;11.75;8.50
20371;PMS7003;63562;30.520;-97.766;2022-10-15T14:27:54;12.00;12.00;10.25
20371;PMS7003;63562;30.520;-97.766;2022-10-15T14:30:28;9.00;9.00;7.25
20371;PMS7003;63562;30.520;-97.766;2022-10-15T14:33:01;10.75;10.75;9.00
20371;PMS7003;63562;30.520;-97.766;2022-10-15T14:35:33;10.00;8.50;8.00
20371;PMS7003;63562;30.520;-97.766;2022-10-15T14:38:13;10.00;10.00;7.00
20371;PMS7003;63562;30.520;-97.766;2022-10-15T14:41:00;9.25;9.25;7.00
20371;PMS7003;63562;30.520;-97.766;2022-10-15T14:43:36;8.25;8.25;7.25
20371;PMS7003;63562;30.520;-97.766;2022-10-15T14:46:10;7.00;7.00;6.00
20371;PMS7003;63562;30.520;-97.766;2022-10-15T14:48:45;7.00;7.00;6.00
20371;PMS7003;63562;30.520;-97.766;2022-10-15T14:51:21;5.00;5.00;4.00
20371;PMS7003;63562;30.520;-97.766;2022-10-15T14:53:55;7.50;7.50;6.50
20371;PMS7003;63562;30.520;-97.766;2022-10-15T14:56:29;6.00;6.00;5.00
20371;PMS7003;63562;30.520;-97.766;2022-10-15T14:59:03;8.00;8.00;7.00
20371;PMS7003;63562;30.520;-97.766;2022-10-15T15:01:40;6.25;6.25;5.50
20371;PMS7003;63562;30.520;-97.766;2022-10-15T15:07:12;6.75;6.75;6.00
20371;PMS7003;63562;30.520;-97.766;2022-10-15T15:09:46;7.25;7.25;6.00
20371;PMS7003;63562;30.520;-97.766;2022-10-15T15:12:24;8.00;8.00;6.50
20371;PMS7003;63562;30.520;-97.766;2022-10-15T15:14:59;7.75;7.75;7.00
20371;PMS7003;63562;30.520;-97.766;2022-10-15T15:17:29;4.25;4.25;4.25
20371;PMS7003;63562;30.520;-97.766;2022-10-15T15:20:00;7.00;7.00;6.00
20371;PMS7003;63562;30.520;-97.766;2022-10-15T15:22:32;8.00;8.00;6.25
20371;PMS7003;63562;30.520;-97.766;2022-10-15T15:25:13;7.75;6.25;5.25
20371;PMS7003;63562;30.520;-97.766;2022-10-15T15:27:47;6.75;6.75;5.75
20371;PMS7003;63562;30.520;-97.766;2022-10-15T15:30:21;8.00;8.00;6.25
20371;PMS7003;63562;30.520;-97.766;2022-10-15T15:32:56;7.50;6.75;6.00
20371;PMS7003;63562;30.520;-97.766;2022-10-15T15:35:31;7.00;6.25;5.75
20371;PMS7003;63562;30.520;-97.766;2022-10-15T15:38:12;5.75;5.75;5.50
20371;PMS7003;63562;30.520;-97.766;2022-10-15T15:40:43;6.50;6.50;5.25
20371;PMS7003;63562;30.520;-97.766;2022-10-15T15:43:13;4.75;4.75;3.75
20371;PMS7003;63562;30.520;-97.766;2022-10-15T15:45:48;5.25;5.25;4.25
20371;PMS7003;63562;30.520;-97.766;2022-10-15T15:48:19;5.00;5.00;4.25
20371;PMS7003;63562;30.520;-97.766;2022-10-15T15:50:49;6.00;5.00;4.00
20371;PMS7003;63562;30.520;-97.766;2022-10-15T15:53:20;4.00;4.00;3.00
20371;PMS7003;63562;30.520;-97.766;2022-10-15T15:55:54;4.50;4.50;4.00
20371;PMS7003;63562;30.520;-97.766;2022-10-15T15:58:23;5.00;5.00;4.75
20371;PMS7003;63562;30.520;-97.766;2022-10-15T16:00:54;5.00;5.00;4.00
20371;PMS7003;63562;30.520;-97.766;2022-10-15T16:03:24;4.00;4.00;3.00
20371;PMS7003;63562;30.520;-97.766;2022-10-15T16:05:55;5.75;5.75;4.75
20371;PMS7003;63562;30.520;-97.766;2022-10-15T16:08:26;5.25;5.25;4.75
20371;PMS7003;63562;30.520;-97.766;2022-10-15T16:11:00;5.00;5.00;4.50
20371;PMS7003;63562;30.520;-97.766;2022-10-15T16:13:34;3.80;3.80;3.60
20371;PMS7003;63562;30.520;-97.766;2022-10-15T16:16:05;5.25;5.25;4.00
20371;PMS7003;63562;30.520;-97.766;2022-10-15T16:18:36;4.50;4.50;4.00
20371;PMS7003;63562;30.520;-97.766;2022-10-15T16:21:07;4.75;4.75;4.00
20371;PMS7003;63562;30.520;-97.766;2022-10-15T16:23:37;6.25;6.00;5.00
20371;PMS7003;63562;30.520;-97.766;2022-10-15T16:26:09;5.75;4.75;4.00
20371;PMS7003;63562;30.520;-97.766;2022-10-15T16:28:40;3.75;3.75;3.25
20371;PMS7003;63562;30.520;-97.766;2022-10-15T16:31:14;4.25;4.25;3.75
20371;PMS7003;63562;30.520;-97.766;2022-10-15T16:33:56;5.00;5.00;3.25
20371;PMS7003;63562;30.520;-97.766;2022-10-15T16:36:26;5.00;5.00;4.00
20371;PMS7003;63562;30.520;-97.766;2022-10-15T16:38:57;3.75;3.75;3.00
20371;PMS7003;63562;30.520;-97.766;2022-10-15T16:41:27;5.00;5.00;4.00
20371;PMS7003;63562;30.520;-97.766;2022-10-15T16:43:57;7.50;6.00;5.25
20371;PMS7003;63562;30.520;-97.766;2022-10-15T16:46:28;4.00;4.00;4.00
20371;PMS7003;63562;30.520;-97.766;2022-10-15T16:48:58;5.75;5.75;4.75
20371;PMS7003;63562;30.520;-97.766;2022-10-15T16:51:30;6.50;6.50;6.00
20371;PMS7003;63562;30.520;-97.766;2022-10-15T16:54:12;4.80;4.80;4.20
20371;PMS7003;63562;30.520;-97.766;2022-10-15T16:56:44;5.00;5.00;5.00
20371;PMS7003;63562;30.520;-97.766;2022-10-15T16:59:19;4.75;4.75;4.25
20371;PMS7003;63562;30.520;-97.766;2022-10-15T17:01:56;7.25;6.00;4.75
20371;PMS7003;63562;30.520;-97.766;2022-10-15T17:04:28;6.50;6.50;4.50
20371;PMS7003;63562;30.520;-97.766;2022-10-15T17:06:59;4.75;4.75;4.00
20371;PMS7003;63562;30.520;-97.766;2022-10-15T17:09:31;4.20;4.20;4.00
20371;PMS7003;63562;30.520;-97.766;2022-10-15T17:12:06;5.75;5.50;5.00
20371;PMS7003;63562;30.520;-97.766;2022-10-15T17:14:40;6.75;5.00;5.00
20371;PMS7003;63562;30.520;-97.766;2022-10-15T17:17:10;5.00;5.00;5.00
20371;PMS7003;63562;30.520;-97.766;2022-10-15T17:19:39;5.00;5.00;4.00
20371;PMS7003;63562;30.520;-97.766;2022-10-15T17:22:13;8.00;5.00;4.25
20371;PMS7003;63562;30.520;-97.766;2022-10-15T17:24:44;5.00;5.00;4.75
20371;PMS7003;63562;30.520;-97.766;2022-10-15T17:27:16;4.75;4.75;4.00
20371;PMS7003;63562;30.520;-97.766;2022-10-15T17:29:47;3.50;3.50;3.00
20371;PMS7003;63562;30.520;-97.766;2022-10-15T17:32:17;5.00;5.00;4.75
20371;PMS7003;63562;30.520;-97.766;2022-10-15T17:34:50;6.75;6.50;5.00
20371;PMS7003;63562;30.520;-97.766;2022-10-15T17:37:21;5.50;5.50;4.75